createdAt,value
2023-05-24T00:01:56.818Z,4.43
2023-05-24T00:05:23.614Z,4.53
2023-05-24T00:08:47.273Z,4.10
2023-05-24T00:12:11.799Z,4.47
2023-05-24T00:15:35.626Z,4.90
2023-05-24T00:18:59.679Z,3.83
2023-05-24T00:22:25.218Z,5.83
2023-05-24T00:25:48.926Z,4.00
2023-05-24T00:29:13.749Z,4.03
2023-05-24T00:32:37.653Z,4.10
2023-05-24T00:36:04.939Z,5.07
2023-05-24T00:39:30.087Z,4.30
2023-05-24T00:42:53.845Z,4.30
2023-05-24T00:46:20.284Z,7.03
2023-05-24T00:49:44.600Z,4.67
2023-05-24T00:53:10.561Z,3.83
2023-05-24T00:56:38.094Z,4.60
2023-05-24T01:00:03.912Z,5.60
2023-05-24T01:03:29.416Z,4.57
2023-05-24T01:07:08.222Z,5.40
2023-05-24T01:10:42.014Z,4.27
2023-05-24T01:14:21.160Z,5.80
2023-05-24T01:17:55.694Z,4.80
2023-05-24T01:21:39.726Z,5.67
2023-05-24T01:25:05.427Z,6.00
2023-05-24T01:28:32.779Z,5.00
2023-05-24T01:31:56.566Z,5.50
2023-05-24T01:35:20.707Z,5.17
2023-05-24T01:38:45.398Z,5.03
2023-05-24T01:42:21.045Z,5.30
2023-05-24T01:45:54.571Z,5.93
2023-05-24T01:49:23.418Z,4.47
2023-05-24T01:52:51.014Z,4.30
2023-05-24T01:56:16.821Z,5.10
2023-05-24T01:59:44.404Z,7.87
2023-05-24T02:03:10.146Z,5.23
2023-05-24T02:06:34.709Z,5.77
2023-05-24T02:09:58.727Z,6.67
2023-05-24T02:13:22.491Z,6.80
2023-05-24T02:16:47.004Z,6.30
2023-05-24T02:20:14.374Z,5.00
2023-05-24T02:23:38.175Z,6.13
2023-05-24T02:27:02.882Z,5.30
2023-05-24T02:30:27.304Z,5.30
2023-05-24T02:33:51.748Z,6.40
2023-05-24T02:37:17.140Z,8.57
2023-05-24T02:40:41.143Z,6.13
2023-05-24T02:44:06.835Z,6.03
2023-05-24T02:47:30.864Z,5.33
2023-05-24T02:50:54.790Z,5.40
2023-05-24T02:54:20.099Z,7.87
2023-05-24T02:57:44.031Z,5.43
2023-05-24T03:01:13.060Z,6.30
2023-05-24T03:04:37.406Z,7.03
2023-05-24T03:08:01.759Z,5.60
2023-05-24T03:11:27.222Z,6.83
2023-05-24T03:14:50.913Z,5.40
2023-05-24T03:18:14.815Z,6.63
2023-05-24T03:21:40.784Z,6.47
2023-05-24T03:25:05.005Z,7.00
2023-05-24T03:28:37.160Z,6.17
2023-05-24T03:32:01.572Z,7.30
2023-05-24T03:35:25.916Z,6.23
2023-05-24T03:38:52.444Z,5.57
2023-05-24T03:42:17.719Z,5.53
2023-05-24T03:45:43.528Z,5.33
2023-05-24T03:49:08.405Z,6.93
2023-05-24T03:52:34.175Z,5.40
2023-05-24T03:55:57.834Z,5.60
2023-05-24T03:59:22.432Z,6.10
2023-05-24T04:02:48.284Z,5.50
2023-05-24T04:06:12.040Z,5.50
2023-05-24T04:09:36.771Z,5.90
2023-05-24T04:13:00.907Z,5.63
2023-05-24T04:16:26.183Z,5.07
2023-05-24T04:19:52.414Z,5.80
2023-05-24T04:23:16.970Z,6.20
2023-05-24T04:26:41.901Z,5.43
2023-05-24T04:30:07.192Z,5.90
2023-05-24T04:33:33.039Z,6.77
2023-05-24T04:36:58.277Z,5.10
2023-05-24T04:40:26.118Z,5.73
2023-05-24T04:43:50.320Z,5.83
2023-05-24T04:47:16.216Z,5.43
2023-05-24T04:50:40.203Z,5.07
2023-05-24T04:54:08.988Z,6.80
2023-05-24T04:57:32.894Z,5.20
2023-05-24T05:00:58.177Z,4.80
2023-05-24T05:04:22.932Z,6.13
2023-05-24T05:07:47.082Z,5.50
2023-05-24T05:11:15.674Z,6.80
2023-05-24T05:14:40.763Z,6.00
2023-05-24T05:18:05.294Z,4.60
2023-05-24T05:21:29.918Z,5.17
2023-05-24T05:24:54.033Z,5.27
2023-05-24T05:28:19.381Z,5.70
2023-05-24T05:31:43.003Z,7.07
2023-05-24T05:35:07.982Z,5.23
2023-05-24T05:38:31.995Z,7.00
2023-05-24T05:41:56.067Z,5.80
2023-05-24T05:45:21.322Z,5.10
2023-05-24T05:48:46.423Z,6.67
2023-05-24T05:52:10.285Z,5.90
2023-05-24T05:55:33.917Z,7.03
2023-05-24T05:58:57.620Z,5.17
2023-05-24T06:02:23.275Z,6.90
2023-05-24T06:05:46.875Z,6.03
2023-05-24T06:09:12.582Z,6.50
2023-05-24T06:12:47.573Z,6.47
2023-05-24T06:16:14.498Z,5.63
2023-05-24T06:19:40.350Z,5.93
2023-05-24T06:23:05.098Z,7.17
2023-05-24T06:26:29.054Z,6.70
2023-05-24T06:29:53.048Z,7.17
2023-05-24T06:33:17.352Z,7.03
2023-05-24T06:36:43.455Z,7.30
2023-05-24T06:40:09.909Z,6.63
2023-05-24T06:43:35.714Z,6.60
2023-05-24T06:47:00.277Z,6.60
2023-05-24T06:50:24.166Z,6.27
2023-05-24T06:53:49.473Z,6.23
2023-05-24T06:57:13.146Z,6.53
2023-05-24T07:00:37.409Z,5.87
2023-05-24T07:04:02.173Z,4.97
2023-05-24T07:07:26.697Z,6.00
2023-05-24T07:10:53.493Z,5.20
2023-05-24T07:14:18.494Z,5.50
2023-05-24T07:17:43.071Z,5.47
2023-05-24T07:21:07.180Z,5.63
2023-05-24T07:24:32.169Z,4.80
2023-05-24T07:27:59.894Z,5.43
2023-05-24T07:31:23.695Z,5.53
2023-05-24T07:34:50.786Z,4.97
2023-05-24T07:38:15.204Z,4.97
2023-05-24T07:41:39.584Z,5.40
2023-05-24T07:45:07.019Z,5.67
2023-05-24T07:48:31.194Z,5.40
2023-05-24T07:51:57.434Z,7.00
2023-05-24T07:55:21.854Z,5.90
2023-05-24T07:58:48.848Z,5.57
2023-05-24T08:02:16.761Z,5.50
2023-05-24T08:05:41.702Z,5.73
2023-05-24T08:09:07.929Z,6.40
2023-05-24T08:12:32.311Z,6.83
2023-05-24T08:15:58.555Z,3.70
2023-05-24T08:19:24.567Z,5.40
2023-05-24T08:22:49.378Z,5.83
2023-05-24T08:26:13.233Z,5.93
2023-05-24T08:29:38.341Z,5.17
2023-05-24T08:33:05.791Z,6.53
2023-05-24T08:36:32.826Z,6.47
2023-05-24T08:39:59.310Z,6.20
2023-05-24T08:43:23.954Z,6.80
2023-05-24T08:46:48.703Z,4.97
2023-05-24T08:50:14.474Z,6.50
2023-05-24T08:53:41.939Z,5.43
2023-05-24T08:57:06.733Z,5.53
2023-05-24T09:00:30.816Z,5.63
2023-05-24T09:03:58.643Z,4.83
2023-05-24T09:07:25.238Z,6.30
2023-05-24T09:10:55.556Z,5.53
2023-05-24T09:14:20.642Z,5.90
2023-05-24T09:17:45.285Z,4.90
2023-05-24T09:21:10.050Z,5.30
2023-05-24T09:24:42.327Z,5.73
2023-05-24T09:28:09.308Z,6.20
2023-05-24T09:31:38.419Z,6.00
2023-05-24T09:35:02.150Z,5.00
2023-05-24T09:38:28.080Z,6.00
2023-05-24T09:41:57.693Z,6.63
2023-05-24T09:45:25.731Z,6.67
2023-05-24T09:49:03.819Z,5.07
2023-05-24T09:52:29.701Z,5.20
2023-05-24T09:55:58.254Z,5.57
2023-05-24T09:59:22.776Z,7.53
2023-05-24T10:03:02.408Z,6.10
2023-05-24T10:06:26.866Z,6.80
2023-05-24T10:09:51.707Z,5.40
2023-05-24T10:13:18.466Z,5.83
2023-05-24T10:16:42.568Z,7.30
2023-05-24T10:20:12.285Z,4.60
2023-05-24T10:23:39.288Z,5.60
2023-05-24T10:27:08.766Z,5.40
2023-05-24T10:30:38.581Z,5.37
2023-05-24T10:34:08.384Z,4.87
2023-05-24T10:37:34.880Z,6.03
2023-05-24T10:40:59.677Z,6.10
2023-05-24T10:44:30.291Z,6.13
2023-05-24T10:47:54.488Z,5.57
2023-05-24T10:51:38.357Z,7.80
2023-05-24T10:55:12.079Z,5.63
2023-05-24T10:58:47.117Z,7.90
2023-05-24T11:02:14.055Z,6.90
2023-05-24T11:05:53.414Z,6.30
2023-05-24T11:09:20.216Z,7.73
2023-05-24T11:12:45.582Z,7.50
2023-05-24T11:16:11.918Z,7.83
2023-05-24T11:19:37.347Z,5.90
2023-05-24T11:23:03.268Z,7.47
2023-05-24T11:26:27.607Z,7.20
2023-05-24T11:29:53.300Z,6.70
2023-05-24T11:33:18.737Z,6.00
2023-05-24T11:36:43.422Z,7.77
2023-05-24T11:40:12.245Z,5.10
2023-05-24T11:43:36.371Z,6.00
2023-05-24T11:47:02.404Z,5.50
2023-05-24T11:50:26.954Z,6.07
2023-05-24T11:53:54.545Z,6.27
2023-05-24T11:57:23.706Z,6.07
2023-05-24T12:00:51.247Z,6.07
2023-05-24T12:04:16.868Z,6.50
2023-05-24T12:07:48.673Z,5.50
2023-05-24T12:11:12.855Z,4.93
2023-05-24T12:14:37.627Z,5.57
2023-05-24T12:18:01.561Z,4.93
2023-05-24T12:21:28.981Z,5.83
2023-05-24T12:24:53.193Z,7.13
2023-05-24T12:28:24.636Z,5.23
2023-05-24T12:31:50.175Z,5.60
2023-05-24T12:35:14.518Z,5.40
2023-05-24T12:38:39.831Z,5.23
2023-05-24T12:42:05.971Z,4.90
2023-05-24T12:45:29.629Z,5.67
2023-05-24T12:48:53.799Z,6.83
2023-05-24T12:52:17.872Z,5.80
2023-05-24T12:55:43.851Z,6.30
2023-05-24T12:59:07.993Z,6.80
2023-05-24T13:02:32.749Z,6.70
2023-05-24T13:05:58.777Z,5.63
2023-05-24T13:09:23.567Z,6.60
2023-05-24T13:12:50.413Z,6.30
2023-05-24T13:16:14.368Z,7.50
2023-05-24T13:19:39.596Z,6.80
2023-05-24T13:23:03.494Z,5.83
2023-05-24T13:26:30.259Z,6.50
2023-05-24T13:33:23.567Z,6.67
2023-05-24T13:36:47.619Z,7.00
2023-05-24T13:40:12.179Z,5.23
2023-05-24T13:43:36.590Z,5.70
2023-05-24T13:47:02.288Z,6.80
2023-05-24T13:50:26.770Z,6.10
2023-05-24T13:53:50.817Z,5.77
2023-05-24T13:57:17.248Z,5.87
2023-05-24T14:00:42.589Z,6.20
2023-05-24T14:04:10.892Z,5.60
2023-05-24T14:07:35.280Z,6.20
2023-05-24T14:10:59.691Z,5.27
2023-05-24T14:17:50.622Z,6.73
2023-05-24T14:21:18.233Z,6.53
2023-05-24T14:24:41.927Z,7.67
2023-05-24T14:28:06.352Z,6.67
2023-05-24T14:31:30.685Z,7.10
2023-05-24T14:34:54.972Z,6.23
2023-05-24T14:38:23.224Z,6.00
2023-05-24T14:41:47.633Z,5.80
2023-05-24T14:45:12.957Z,5.30
2023-05-24T14:48:37.695Z,5.47
2023-05-24T14:52:01.690Z,5.77
2023-05-24T14:55:27.243Z,6.57
2023-05-24T14:58:53.266Z,6.07
2023-05-24T15:02:17.610Z,5.30
2023-05-24T15:05:42.568Z,5.53
2023-05-24T15:09:08.039Z,6.10
2023-05-24T15:12:34.052Z,5.63
2023-05-24T15:16:00.376Z,6.77
2023-05-24T15:19:24.653Z,6.10
2023-05-24T15:22:50.780Z,5.53
2023-05-24T15:26:14.468Z,7.30
2023-05-24T15:29:40.069Z,6.93
2023-05-24T15:33:03.725Z,6.33
2023-05-24T15:36:27.681Z,6.27
2023-05-24T15:39:52.634Z,6.20
2023-05-24T15:43:18.822Z,5.90
2023-05-24T15:46:43.813Z,6.10
2023-05-24T15:50:08.921Z,6.00
2023-05-24T15:53:32.681Z,6.30
2023-05-24T15:56:59.163Z,5.80
2023-05-24T16:00:22.973Z,5.70
2023-05-24T16:03:48.158Z,5.27
2023-05-24T16:07:12.750Z,6.00
2023-05-24T16:10:36.540Z,6.10
2023-05-24T16:14:00.762Z,7.00
2023-05-24T16:17:24.765Z,5.87
2023-05-24T16:20:50.840Z,6.80
2023-05-24T16:24:14.540Z,7.03
2023-05-24T16:27:38.767Z,6.97
2023-05-24T16:31:03.890Z,6.57
2023-05-24T16:34:27.869Z,5.67
2023-05-24T16:37:55.903Z,5.27
2023-05-24T16:41:19.808Z,6.60
2023-05-24T16:44:43.938Z,6.17
2023-05-24T16:48:07.872Z,6.97
2023-05-24T16:51:31.996Z,5.80
2023-05-24T16:54:57.460Z,5.40
2023-05-24T16:58:21.882Z,6.33
2023-05-24T17:01:47.150Z,6.53
2023-05-24T17:05:12.384Z,5.60
2023-05-24T17:08:37.679Z,7.60
2023-05-24T17:12:03.434Z,6.10
2023-05-24T17:15:27.036Z,6.50
2023-05-24T17:18:51.198Z,5.83
2023-05-24T17:22:14.873Z,6.90
2023-05-24T17:25:38.812Z,7.17
2023-05-24T17:29:04.314Z,5.80
2023-05-24T17:32:28.909Z,5.47
2023-05-24T17:35:53.193Z,5.80
2023-05-24T17:39:19.973Z,6.50
2023-05-24T17:42:43.613Z,6.57
2023-05-24T17:46:09.828Z,5.80
2023-05-24T17:49:37.287Z,7.23
2023-05-24T17:53:01.882Z,6.30
2023-05-24T17:56:27.858Z,7.03
2023-05-24T17:59:54.149Z,7.03
2023-05-24T18:03:20.030Z,8.17
2023-05-24T18:06:43.745Z,6.10
2023-05-24T18:10:09.186Z,7.40
2023-05-24T18:13:33.213Z,7.20
2023-05-24T18:17:00.317Z,6.03
2023-05-24T18:20:31.632Z,6.63
2023-05-24T18:23:59.191Z,6.90
2023-05-24T18:27:24.140Z,5.73
2023-05-24T18:30:47.990Z,6.30
2023-05-24T18:34:12.385Z,6.10
2023-05-24T18:37:38.430Z,7.07
2023-05-24T18:41:06.005Z,7.80
2023-05-24T18:44:32.360Z,7.00
2023-05-24T18:47:56.056Z,7.17
2023-05-24T18:51:20.413Z,7.30
2023-05-24T18:54:45.541Z,6.40
2023-05-24T18:58:09.137Z,7.07
2023-05-24T19:01:34.186Z,5.43
2023-05-24T19:04:59.909Z,6.67
2023-05-24T19:08:23.622Z,6.13
2023-05-24T19:11:49.373Z,7.63
2023-05-24T19:15:13.429Z,7.37
2023-05-24T19:18:38.028Z,7.30
2023-05-24T19:22:01.917Z,7.50
2023-05-24T19:25:26.493Z,6.83
2023-05-24T19:28:52.271Z,8.20
2023-05-24T19:32:20.245Z,8.83
2023-05-24T19:35:45.155Z,8.20
2023-05-24T19:39:09.128Z,7.57
2023-05-24T19:42:32.773Z,7.63
2023-05-24T19:46:00.167Z,7.70
2023-05-24T19:49:23.763Z,8.10
2023-05-24T19:52:47.348Z,8.30
2023-05-24T19:56:11.504Z,7.57
2023-05-24T19:59:35.349Z,7.50
2023-05-24T20:03:01.764Z,7.00
2023-05-24T20:06:26.357Z,7.93
2023-05-24T20:09:50.692Z,7.93
2023-05-24T20:13:14.290Z,7.73
2023-05-24T20:16:38.232Z,8.93
2023-05-24T20:20:04.021Z,7.03
2023-05-24T20:23:27.790Z,7.83
2023-05-24T20:26:51.440Z,7.47
2023-05-24T20:30:18.933Z,7.00
2023-05-24T20:33:42.740Z,8.40
2023-05-24T20:37:07.852Z,6.90
2023-05-24T20:40:32.147Z,6.80
2023-05-24T20:43:55.706Z,8.50
2023-05-24T20:47:19.297Z,8.60
2023-05-24T20:50:43.032Z,7.07
2023-05-24T20:54:08.461Z,8.40
2023-05-24T20:57:32.758Z,8.30
2023-05-24T21:00:59.111Z,8.00
2023-05-24T21:04:24.772Z,7.03
2023-05-24T21:07:49.187Z,8.33
2023-05-24T21:11:17.030Z,7.20
2023-05-24T21:14:41.189Z,6.60
2023-05-24T21:18:05.423Z,7.23
2023-05-24T21:21:30.204Z,7.60
2023-05-24T21:24:55.981Z,8.20
2023-05-24T21:28:24.037Z,6.97
2023-05-24T21:31:48.846Z,8.23
2023-05-24T21:35:13.194Z,8.20
2023-05-24T21:38:37.153Z,9.67
2023-05-24T21:42:02.093Z,7.30
2023-05-24T21:45:27.536Z,8.10
2023-05-24T21:48:53.781Z,9.77
2023-05-24T21:52:18.212Z,14.03
2023-05-24T21:55:42.732Z,17.37
2023-05-24T21:59:06.722Z,14.17
2023-05-24T22:02:33.437Z,11.33
2023-05-24T22:05:58.242Z,12.20
2023-05-24T22:09:22.280Z,14.20
2023-05-24T22:12:46.526Z,13.13
2023-05-24T22:16:13.109Z,12.27
2023-05-24T22:19:39.865Z,11.17
2023-05-24T22:23:04.302Z,8.97
2023-05-24T22:26:28.270Z,9.70
2023-05-24T22:29:52.272Z,11.60
2023-05-24T22:33:16.390Z,9.23
2023-05-24T22:36:43.132Z,9.30
2023-05-24T22:40:08.403Z,9.60
2023-05-24T22:43:34.329Z,8.47
2023-05-24T22:47:02.163Z,8.20
2023-05-24T22:50:26.958Z,9.43
2023-05-24T22:53:54.542Z,8.20
2023-05-24T22:57:21.581Z,9.57
2023-05-24T23:00:45.290Z,9.87
2023-05-24T23:07:43.754Z,8.47
2023-05-24T23:11:11.246Z,7.90
2023-05-24T23:14:39.885Z,7.63
2023-05-24T23:18:05.693Z,9.07
2023-05-24T23:21:30.592Z,8.00
2023-05-24T23:24:59.004Z,9.00
2023-05-24T23:28:24.767Z,7.50
2023-05-24T23:31:49.689Z,8.30
2023-05-24T23:35:14.849Z,7.67
2023-05-24T23:38:39.453Z,8.60
2023-05-24T23:42:04.168Z,6.77
2023-05-24T23:45:30.770Z,7.20
2023-05-24T23:48:55.983Z,8.87
2023-05-24T23:52:20.884Z,9.30
2023-05-24T23:55:45.661Z,9.20
2023-05-24T23:59:09.911Z,9.23
